createdAt,value
2019-06-27T00:00:58.132Z,983.49
2019-06-27T00:01:58.099Z,983.49
2019-06-27T00:02:58.195Z,983.49
2019-06-27T00:03:58.119Z,983.48
2019-06-27T00:04:58.119Z,983.48
2019-06-27T00:05:58.149Z,983.48
2019-06-27T00:06:58.122Z,983.45
2019-06-27T00:07:58.133Z,983.44
2019-06-27T00:08:58.141Z,983.46
2019-06-27T00:09:58.144Z,983.47
2019-06-27T00:10:58.171Z,983.49
2019-06-27T00:11:58.150Z,983.54
2019-06-27T00:12:58.154Z,983.56
2019-06-27T00:13:58.743Z,983.60
2019-06-27T00:14:58.169Z,983.56
2019-06-27T00:15:58.201Z,983.61
2019-06-27T00:16:58.167Z,983.58
2019-06-27T00:17:58.175Z,983.61
2019-06-27T00:18:58.181Z,983.63
2019-06-27T00:19:58.186Z,983.62
2019-06-27T00:20:58.215Z,983.60
2019-06-27T00:21:58.198Z,983.60
2019-06-27T00:22:58.195Z,983.58
2019-06-27T00:23:58.201Z,983.63
2019-06-27T00:24:58.208Z,983.63
2019-06-27T00:25:58.245Z,983.65
2019-06-27T00:26:58.211Z,983.68
2019-06-27T00:27:58.233Z,983.67
2019-06-27T00:28:58.244Z,983.66
2019-06-27T00:29:58.235Z,983.69
2019-06-27T00:30:58.264Z,983.66
2019-06-27T00:31:58.238Z,983.67
2019-06-27T00:32:58.267Z,983.69
2019-06-27T00:33:58.260Z,983.69
2019-06-27T00:34:58.253Z,983.68
2019-06-27T00:35:58.328Z,983.68
2019-06-27T00:36:58.256Z,983.69
2019-06-27T00:37:58.259Z,983.67
2019-06-27T00:38:58.302Z,983.66
2019-06-27T00:39:58.264Z,983.66
2019-06-27T00:40:58.296Z,983.67
2019-06-27T00:41:58.275Z,983.67
2019-06-27T00:42:58.281Z,983.69
2019-06-27T00:43:58.305Z,983.69
2019-06-27T00:44:58.294Z,983.65
2019-06-27T00:45:58.329Z,983.71
2019-06-27T00:46:58.306Z,983.69
2019-06-27T00:47:58.307Z,983.66
2019-06-27T00:48:58.316Z,983.68
2019-06-27T00:49:58.342Z,983.68
2019-06-27T00:50:58.316Z,983.71
2019-06-27T00:51:58.319Z,983.71
2019-06-27T00:52:58.325Z,983.73
2019-06-27T00:53:58.331Z,983.77
2019-06-27T00:54:58.364Z,983.68
2019-06-27T00:55:58.338Z,983.70
2019-06-27T00:57:13.047Z,983.70
2019-06-27T00:57:58.345Z,983.70
2019-06-27T00:58:58.371Z,983.72
2019-06-27T00:59:58.355Z,983.70
2019-06-27T01:00:58.380Z,983.72
2019-06-27T01:01:58.360Z,983.74
2019-06-27T01:02:58.372Z,983.71
2019-06-27T01:03:58.367Z,983.72
2019-06-27T01:04:58.437Z,983.78
2019-06-27T01:05:58.385Z,983.77
2019-06-27T01:06:58.398Z,983.75
2019-06-27T01:07:58.384Z,983.76
2019-06-27T01:08:58.382Z,983.74
2019-06-27T01:10:01.117Z,983.72
2019-06-27T01:10:58.393Z,983.73
2019-06-27T01:11:58.399Z,983.72
2019-06-27T01:12:58.407Z,983.71
2019-06-27T01:13:58.410Z,983.73
2019-06-27T01:14:58.441Z,983.75
2019-06-27T01:15:58.416Z,983.76
2019-06-27T01:16:58.420Z,983.75
2019-06-27T01:17:58.415Z,983.74
2019-06-27T01:18:58.453Z,983.73
2019-06-27T01:19:58.428Z,983.75
2019-06-27T01:20:58.459Z,983.70
2019-06-27T01:21:58.480Z,983.75
2019-06-27T01:22:58.446Z,983.76
2019-06-27T01:23:58.453Z,983.79
2019-06-27T01:24:58.446Z,983.75
2019-06-27T01:25:58.493Z,983.76
2019-06-27T01:26:58.450Z,983.75
2019-06-27T01:27:58.463Z,983.79
2019-06-27T01:28:58.468Z,983.74
2019-06-27T01:29:58.469Z,983.79
2019-06-27T01:30:58.506Z,983.72
2019-06-27T01:31:58.481Z,983.76
2019-06-27T01:32:58.478Z,983.77
2019-06-27T01:33:58.478Z,983.78
2019-06-27T01:34:58.485Z,983.75
2019-06-27T01:35:58.522Z,983.75
2019-06-27T01:36:58.490Z,983.76
2019-06-27T01:37:58.495Z,983.78
2019-06-27T01:38:58.506Z,983.80
2019-06-27T01:39:58.501Z,983.75
2019-06-27T01:40:58.535Z,983.77
2019-06-27T01:41:58.519Z,983.82
2019-06-27T01:42:58.520Z,983.86
2019-06-27T01:43:58.521Z,983.86
2019-06-27T01:44:58.522Z,983.81
2019-06-27T01:45:58.553Z,983.84
2019-06-27T01:46:58.529Z,983.82
2019-06-27T01:47:58.544Z,983.84
2019-06-27T01:48:58.537Z,983.86
2019-06-27T01:49:58.539Z,983.84
2019-06-27T01:50:58.572Z,983.83
2019-06-27T01:51:58.543Z,983.83
2019-06-27T01:52:58.548Z,983.83
2019-06-27T01:53:58.565Z,983.83
2019-06-27T01:54:58.561Z,983.82
2019-06-27T01:55:58.591Z,983.83
2019-06-27T01:56:58.571Z,983.83
2019-06-27T01:57:58.579Z,983.84
2019-06-27T01:58:58.572Z,983.84
2019-06-27T01:59:58.577Z,983.85
2019-06-27T02:00:58.615Z,983.88
2019-06-27T02:01:58.585Z,983.84
2019-06-27T02:02:58.592Z,983.88
2019-06-27T02:03:58.595Z,983.87
2019-06-27T02:04:58.656Z,983.85
2019-06-27T02:05:58.606Z,983.88
2019-06-27T02:06:58.640Z,983.88
2019-06-27T02:07:58.603Z,983.90
2019-06-27T02:08:58.611Z,983.88
2019-06-27T02:09:58.624Z,983.87
2019-06-27T02:10:58.650Z,983.88
2019-06-27T02:11:58.635Z,983.88
2019-06-27T02:12:58.627Z,983.88
2019-06-27T02:13:58.630Z,983.94
2019-06-27T02:14:58.640Z,983.91
2019-06-27T02:15:58.676Z,983.89
2019-06-27T02:16:58.642Z,983.88
2019-06-27T02:17:58.642Z,983.87
2019-06-27T02:18:58.661Z,983.88
2019-06-27T02:19:58.666Z,983.85
2019-06-27T02:20:58.684Z,983.86
2019-06-27T02:21:58.662Z,983.84
2019-06-27T02:22:58.681Z,983.84
2019-06-27T02:23:58.675Z,983.87
2019-06-27T02:24:58.669Z,983.87
2019-06-27T02:25:58.702Z,983.90
2019-06-27T02:26:58.673Z,983.88
2019-06-27T02:28:03.813Z,983.88
2019-06-27T02:28:58.688Z,983.93
2019-06-27T02:29:58.690Z,983.91
2019-06-27T02:30:58.724Z,983.90
2019-06-27T02:31:58.700Z,983.90
2019-06-27T02:32:58.711Z,983.93
2019-06-27T02:33:58.706Z,983.91
2019-06-27T02:34:58.733Z,983.92
2019-06-27T02:35:58.709Z,983.93
2019-06-27T02:36:58.744Z,983.95
2019-06-27T02:37:58.723Z,983.96
2019-06-27T02:38:58.727Z,983.96
2019-06-27T02:39:58.735Z,983.95
2019-06-27T02:40:59.157Z,983.93
2019-06-27T02:41:58.746Z,983.92
2019-06-27T02:42:58.740Z,983.92
2019-06-27T02:43:58.744Z,983.91
2019-06-27T02:44:58.777Z,983.88
2019-06-27T02:45:58.753Z,983.88
2019-06-27T02:46:58.785Z,983.93
2019-06-27T02:47:58.760Z,983.94
2019-06-27T02:48:58.789Z,983.92
2019-06-27T02:49:58.777Z,983.87
2019-06-27T02:50:58.786Z,983.91
2019-06-27T02:51:58.809Z,983.87
2019-06-27T02:52:58.798Z,983.91
2019-06-27T02:53:58.785Z,983.95
2019-06-27T02:54:58.795Z,983.91
2019-06-27T02:55:58.789Z,983.93
2019-06-27T02:56:58.829Z,983.94
2019-06-27T02:57:58.804Z,983.92
2019-06-27T02:58:58.802Z,983.93
2019-06-27T02:59:58.832Z,983.96
2019-06-27T03:00:58.805Z,983.94
2019-06-27T03:01:58.815Z,983.91
2019-06-27T03:02:58.875Z,983.91
2019-06-27T03:03:58.822Z,983.94
2019-06-27T03:04:58.828Z,983.94
2019-06-27T03:05:58.833Z,983.94
2019-06-27T03:06:58.831Z,983.91
2019-06-27T03:07:58.869Z,983.95
2019-06-27T03:08:58.863Z,983.91
2019-06-27T03:09:58.840Z,983.89
2019-06-27T03:10:58.847Z,983.93
2019-06-27T03:12:00.456Z,983.94
2019-06-27T03:12:58.886Z,983.95
2019-06-27T03:13:59.781Z,983.94
2019-06-27T03:14:58.860Z,983.93
2019-06-27T03:15:58.857Z,983.94
2019-06-27T03:16:58.874Z,983.98
2019-06-27T03:17:58.898Z,983.96
2019-06-27T03:18:58.872Z,984.02
2019-06-27T03:19:58.878Z,984.03
2019-06-27T03:20:58.878Z,984.04
2019-06-27T03:21:58.888Z,984.04
2019-06-27T03:22:58.918Z,984.02
2019-06-27T03:23:58.885Z,984.04
2019-06-27T03:24:58.891Z,983.99
2019-06-27T03:25:58.896Z,984.00
2019-06-27T03:26:58.897Z,984.02
2019-06-27T03:27:58.937Z,983.99
2019-06-27T03:28:58.908Z,984.01
2019-06-27T03:29:58.938Z,984.02
2019-06-27T03:30:58.914Z,984.04
2019-06-27T03:31:58.917Z,984.04
2019-06-27T03:32:58.930Z,984.04
2019-06-27T03:33:58.968Z,984.03
2019-06-27T03:34:58.924Z,984.05
2019-06-27T03:35:58.937Z,984.04
2019-06-27T03:36:58.935Z,984.07
2019-06-27T03:37:58.961Z,984.08
2019-06-27T03:38:58.937Z,984.10
2019-06-27T03:39:58.971Z,984.07
2019-06-27T03:40:58.946Z,984.09
2019-06-27T03:41:58.949Z,984.11
2019-06-27T03:42:58.954Z,984.14
2019-06-27T03:43:58.982Z,984.15
2019-06-27T03:44:59.789Z,984.19
2019-06-27T03:45:58.996Z,984.22
2019-06-27T03:46:58.963Z,984.26
2019-06-27T03:47:58.991Z,984.26
2019-06-27T03:48:58.969Z,984.22
2019-06-27T03:49:58.971Z,984.25
2019-06-27T03:50:58.985Z,984.21
2019-06-27T03:51:58.978Z,984.22
2019-06-27T03:52:59.019Z,984.22
2019-06-27T03:53:58.989Z,984.22
2019-06-27T03:54:58.992Z,984.22
2019-06-27T03:55:58.999Z,984.20
2019-06-27T03:56:59.002Z,984.23
2019-06-27T03:57:59.032Z,984.26
2019-06-27T03:59:11.617Z,984.27
2019-06-27T03:59:59.040Z,984.23
2019-06-27T04:00:59.015Z,984.19
2019-06-27T04:01:59.022Z,984.23
2019-06-27T04:02:59.021Z,984.23
2019-06-27T04:03:59.063Z,984.30
2019-06-27T04:04:59.049Z,984.32
2019-06-27T04:05:59.034Z,984.33
2019-06-27T04:06:59.042Z,984.33
2019-06-27T04:07:59.092Z,984.36
2019-06-27T04:08:59.043Z,984.35
2019-06-27T04:09:59.055Z,984.36
2019-06-27T04:10:59.066Z,984.34
2019-06-27T04:11:59.055Z,984.34
2019-06-27T04:12:59.091Z,984.32
2019-06-27T04:13:59.058Z,984.36
2019-06-27T04:14:59.806Z,984.32
2019-06-27T04:15:59.073Z,984.29
2019-06-27T04:16:59.079Z,984.32
2019-06-27T04:17:59.108Z,984.30
2019-06-27T04:18:59.086Z,984.31
2019-06-27T04:19:59.098Z,984.34
2019-06-27T04:20:59.102Z,984.33
2019-06-27T04:21:59.097Z,984.40
2019-06-27T04:22:59.146Z,984.37
2019-06-27T04:23:59.103Z,984.38
2019-06-27T04:24:59.109Z,984.42
2019-06-27T04:25:59.143Z,984.37
2019-06-27T04:26:59.127Z,984.40
2019-06-27T04:28:00.231Z,984.41
2019-06-27T04:28:59.157Z,984.40
2019-06-27T04:29:59.143Z,984.41
2019-06-27T04:30:59.141Z,984.42
2019-06-27T04:31:59.150Z,984.43
2019-06-27T04:32:59.152Z,984.40
2019-06-27T04:33:59.186Z,984.43
2019-06-27T04:34:59.204Z,984.40
2019-06-27T04:35:59.185Z,984.45
2019-06-27T04:36:59.171Z,984.46
2019-06-27T04:37:59.178Z,984.50
2019-06-27T04:38:59.218Z,984.45
2019-06-27T04:39:59.191Z,984.45
2019-06-27T04:40:59.192Z,984.46
2019-06-27T04:41:59.195Z,984.43
2019-06-27T04:42:59.207Z,984.41
2019-06-27T04:43:59.257Z,984.45
2019-06-27T04:44:59.217Z,984.45
2019-06-27T04:45:59.223Z,984.44
2019-06-27T04:46:59.230Z,984.44
2019-06-27T04:47:59.237Z,984.48
2019-06-27T04:48:59.277Z,984.45
2019-06-27T04:49:59.244Z,984.51
2019-06-27T04:50:59.253Z,984.52
2019-06-27T04:51:59.258Z,984.56
2019-06-27T04:52:59.268Z,984.51
2019-06-27T04:53:59.307Z,984.57
2019-06-27T04:55:03.108Z,984.58
2019-06-27T04:55:59.280Z,984.59
2019-06-27T04:56:59.293Z,984.58
2019-06-27T04:57:59.293Z,984.58
2019-06-27T04:58:59.333Z,984.57
2019-06-27T04:59:59.320Z,984.58
2019-06-27T05:00:59.334Z,984.58
2019-06-27T05:01:59.318Z,984.61
2019-06-27T05:02:59.328Z,984.58
2019-06-27T05:03:59.366Z,984.60
2019-06-27T05:04:59.334Z,984.61
2019-06-27T05:05:59.343Z,984.58
2019-06-27T05:06:59.353Z,984.65
2019-06-27T05:07:59.377Z,984.66
2019-06-27T05:08:59.388Z,984.62
2019-06-27T05:09:59.366Z,984.67
2019-06-27T05:10:59.375Z,984.71
2019-06-27T05:11:59.382Z,984.70
2019-06-27T05:12:59.390Z,984.68
2019-06-27T05:13:59.420Z,984.70
2019-06-27T05:14:59.402Z,984.74
2019-06-27T05:15:59.408Z,984.73
2019-06-27T05:16:59.415Z,984.74
2019-06-27T05:17:59.436Z,984.75
2019-06-27T05:18:59.467Z,984.82
2019-06-27T05:20:02.889Z,984.79
2019-06-27T05:20:59.440Z,984.78
2019-06-27T05:21:59.448Z,984.81
2019-06-27T05:22:59.455Z,984.80
2019-06-27T05:23:59.524Z,984.79
2019-06-27T05:24:59.471Z,984.80
2019-06-27T05:25:59.483Z,984.73
2019-06-27T05:26:59.477Z,984.79
2019-06-27T05:27:59.490Z,984.78
2019-06-27T05:28:59.517Z,984.76
2019-06-27T05:30:09.538Z,984.81
2019-06-27T05:30:59.513Z,984.85
2019-06-27T05:31:59.522Z,984.86
2019-06-27T05:32:59.525Z,984.85
2019-06-27T05:33:59.555Z,984.86
2019-06-27T05:34:59.535Z,984.84
2019-06-27T05:36:02.346Z,984.86
2019-06-27T05:36:59.552Z,984.86
2019-06-27T05:37:59.557Z,984.85
2019-06-27T05:38:59.587Z,984.87
2019-06-27T05:39:59.570Z,984.85
2019-06-27T05:40:59.574Z,984.87
2019-06-27T05:42:00.374Z,984.91
2019-06-27T05:42:59.594Z,984.90
2019-06-27T05:43:59.620Z,984.91
2019-06-27T05:44:59.607Z,984.98
2019-06-27T05:45:59.604Z,984.96
2019-06-27T05:46:59.618Z,984.97
2019-06-27T05:47:59.623Z,985.02
2019-06-27T05:48:59.656Z,984.97
2019-06-27T05:49:59.640Z,985.06
2019-06-27T05:50:59.638Z,985.04
2019-06-27T05:51:59.646Z,985.00
2019-06-27T05:52:59.654Z,985.01
2019-06-27T05:53:59.701Z,985.08
2019-06-27T05:54:59.669Z,985.06
2019-06-27T05:55:59.678Z,985.09
2019-06-27T05:56:59.684Z,985.10
2019-06-27T05:57:59.685Z,985.07
2019-06-27T05:58:59.721Z,985.04
2019-06-27T05:59:59.719Z,985.07
2019-06-27T06:00:59.707Z,985.06
2019-06-27T06:01:59.710Z,985.10
2019-06-27T06:02:59.730Z,985.11
2019-06-27T06:03:59.764Z,985.08
2019-06-27T06:04:59.729Z,985.09
2019-06-27T06:05:59.801Z,985.11
2019-06-27T06:06:59.752Z,985.10
2019-06-27T06:07:59.756Z,985.05
2019-06-27T06:08:59.757Z,985.07
2019-06-27T06:09:59.799Z,985.11
2019-06-27T06:10:59.771Z,985.10
2019-06-27T06:12:00.369Z,985.11
2019-06-27T06:12:59.783Z,985.12
2019-06-27T06:13:59.821Z,985.15
2019-06-27T06:14:59.795Z,985.16
2019-06-27T06:16:01.166Z,985.20
2019-06-27T06:16:59.809Z,985.19
2019-06-27T06:17:59.818Z,985.24
2019-06-27T06:18:59.860Z,985.23
2019-06-27T06:19:59.833Z,985.25
2019-06-27T06:20:59.870Z,985.25
2019-06-27T06:21:59.843Z,985.29
2019-06-27T06:22:59.858Z,985.25
2019-06-27T06:23:59.862Z,985.20
2019-06-27T06:24:59.900Z,985.30
2019-06-27T06:25:59.913Z,985.32
2019-06-27T06:26:59.887Z,985.33
2019-06-27T06:27:59.887Z,985.37
2019-06-27T06:28:59.897Z,985.35
2019-06-27T06:29:59.905Z,985.38
2019-06-27T06:30:59.950Z,985.41
2019-06-27T06:31:59.912Z,985.39
2019-06-27T06:32:59.931Z,985.42
2019-06-27T06:33:59.930Z,985.45
2019-06-27T06:34:59.942Z,985.38
2019-06-27T06:35:59.981Z,985.32
2019-06-27T06:36:59.963Z,985.30
2019-06-27T06:37:59.962Z,985.31
2019-06-27T06:38:59.968Z,985.31
2019-06-27T06:39:59.985Z,985.31
2019-06-27T06:41:00.014Z,985.18
2019-06-27T06:42:00.011Z,985.31
2019-06-27T06:43:00.698Z,985.27
2019-06-27T06:44:00.010Z,985.30
2019-06-27T06:45:00.054Z,985.27
2019-06-27T06:46:00.053Z,985.29
2019-06-27T06:47:00.033Z,985.28
2019-06-27T06:48:00.043Z,985.28
2019-06-27T06:49:00.046Z,985.28
2019-06-27T06:50:00.087Z,985.34
2019-06-27T06:51:00.069Z,985.35
2019-06-27T06:52:00.150Z,985.31
2019-06-27T06:53:00.084Z,985.32
2019-06-27T06:54:00.101Z,985.31
2019-06-27T06:55:00.167Z,985.30
2019-06-27T06:56:00.117Z,985.35
2019-06-27T06:57:00.128Z,985.34
2019-06-27T06:58:00.127Z,985.42
2019-06-27T06:59:00.152Z,985.44
2019-06-27T07:00:00.170Z,985.48
2019-06-27T07:01:02.215Z,985.47
2019-06-27T07:02:00.183Z,985.54
2019-06-27T07:03:00.162Z,985.56
2019-06-27T07:04:00.178Z,985.51
2019-06-27T07:05:00.383Z,985.56
2019-06-27T07:06:00.198Z,985.60
2019-06-27T07:07:00.201Z,985.57
2019-06-27T07:08:00.245Z,985.57
2019-06-27T07:09:00.224Z,985.51
2019-06-27T07:10:00.252Z,985.55
2019-06-27T07:11:00.280Z,985.54
2019-06-27T07:12:00.264Z,985.55
2019-06-27T07:13:00.256Z,985.55
2019-06-27T07:14:00.262Z,985.52
2019-06-27T07:15:00.304Z,985.54
2019-06-27T07:16:00.282Z,985.57
2019-06-27T07:17:00.288Z,985.60
2019-06-27T07:18:00.291Z,985.60
2019-06-27T07:19:00.300Z,985.58
2019-06-27T07:20:00.349Z,985.59
2019-06-27T07:21:00.319Z,985.61
2019-06-27T07:22:00.331Z,985.57
2019-06-27T07:23:00.349Z,985.57
2019-06-27T07:24:00.349Z,985.56
2019-06-27T07:25:00.396Z,985.53
2019-06-27T07:26:00.378Z,985.57
2019-06-27T07:27:00.427Z,985.60
2019-06-27T07:28:00.405Z,985.58
2019-06-27T07:29:00.399Z,985.59
2019-06-27T07:30:00.405Z,985.57
2019-06-27T07:31:08.252Z,985.59
2019-06-27T07:32:00.452Z,985.58
2019-06-27T07:33:00.435Z,985.56
2019-06-27T07:34:00.445Z,985.59
2019-06-27T07:35:00.456Z,985.49
2019-06-27T07:36:00.494Z,985.44
2019-06-27T07:37:00.500Z,985.46
2019-06-27T07:38:00.481Z,985.46
2019-06-27T07:39:00.502Z,985.53
2019-06-27T07:40:00.512Z,985.50
2019-06-27T07:41:00.537Z,985.55
2019-06-27T07:42:00.552Z,985.52
2019-06-27T07:43:01.353Z,985.49
2019-06-27T07:44:00.550Z,985.54
2019-06-27T07:45:00.551Z,985.49
2019-06-27T07:46:00.625Z,985.43
2019-06-27T07:47:00.568Z,985.48
2019-06-27T07:48:00.592Z,985.43
2019-06-27T07:49:00.594Z,985.45
2019-06-27T07:50:00.608Z,985.42
2019-06-27T07:51:00.645Z,985.44
2019-06-27T07:52:01.362Z,985.46
2019-06-27T07:53:00.654Z,985.51
2019-06-27T07:54:00.728Z,985.53
2019-06-27T07:55:00.668Z,985.55
2019-06-27T07:56:00.697Z,985.58
2019-06-27T07:57:00.677Z,985.59
2019-06-27T07:58:00.687Z,985.58
2019-06-27T07:59:00.703Z,985.59
2019-06-27T08:00:00.720Z,985.57
2019-06-27T08:01:00.758Z,985.57
2019-06-27T08:02:00.731Z,985.59
2019-06-27T08:03:00.744Z,985.60
2019-06-27T08:04:00.753Z,985.61
2019-06-27T08:05:00.762Z,985.62
2019-06-27T08:06:00.862Z,985.62
2019-06-27T08:07:00.799Z,985.63
2019-06-27T08:08:00.826Z,985.61
2019-06-27T08:09:00.833Z,985.59
2019-06-27T08:10:00.829Z,985.61
2019-06-27T08:11:00.913Z,985.59
2019-06-27T08:12:00.843Z,985.56
2019-06-27T08:13:00.881Z,985.52
2019-06-27T08:14:00.873Z,985.50
2019-06-27T08:15:00.883Z,985.57
2019-06-27T08:16:00.925Z,985.54
2019-06-27T08:17:00.916Z,985.56
2019-06-27T08:18:00.920Z,985.53
2019-06-27T08:19:00.930Z,985.52
2019-06-27T08:20:00.947Z,985.54
2019-06-27T08:21:00.992Z,985.56
2019-06-27T08:22:00.974Z,985.52
2019-06-27T08:23:00.981Z,985.57
2019-06-27T08:24:00.993Z,985.50
2019-06-27T08:25:01.005Z,985.52
2019-06-27T08:26:01.048Z,985.43
2019-06-27T08:27:01.060Z,985.49
2019-06-27T08:28:01.040Z,985.44
2019-06-27T08:29:01.062Z,985.43
2019-06-27T08:30:01.072Z,985.45
2019-06-27T08:31:01.127Z,985.45
2019-06-27T08:32:01.133Z,985.47
2019-06-27T08:33:01.109Z,985.48
2019-06-27T08:34:01.124Z,985.49
2019-06-27T08:35:01.144Z,985.52
2019-06-27T08:36:01.155Z,985.52
2019-06-27T08:37:01.202Z,985.46
2019-06-27T08:38:01.185Z,985.47
2019-06-27T08:39:01.193Z,985.44
2019-06-27T08:40:01.210Z,985.42
2019-06-27T08:41:01.217Z,985.44
2019-06-27T08:42:01.263Z,985.43
2019-06-27T08:43:01.246Z,985.46
2019-06-27T08:44:01.320Z,985.48
2019-06-27T08:45:01.266Z,985.45
2019-06-27T08:46:01.287Z,985.45
2019-06-27T08:47:01.347Z,985.50
2019-06-27T08:48:01.314Z,985.52
2019-06-27T08:49:01.322Z,985.50
2019-06-27T08:50:01.337Z,985.45
2019-06-27T08:51:01.475Z,985.39
2019-06-27T08:52:01.406Z,985.41
2019-06-27T08:53:01.660Z,985.41
2019-06-27T08:54:01.394Z,985.37
2019-06-27T08:55:01.405Z,985.38
2019-06-27T08:56:02.385Z,985.33
2019-06-27T08:57:01.461Z,985.41
2019-06-27T08:58:01.480Z,985.37
2019-06-27T08:59:01.473Z,985.37
2019-06-27T09:00:01.490Z,985.37
2019-06-27T09:01:01.508Z,985.37
2019-06-27T09:02:08.600Z,985.38
2019-06-27T09:03:01.548Z,985.36
2019-06-27T09:04:01.543Z,985.41
2019-06-27T09:05:01.603Z,985.39
2019-06-27T09:06:01.571Z,985.39
2019-06-27T09:07:01.610Z,985.39
2019-06-27T09:08:01.628Z,985.40
2019-06-27T09:09:01.621Z,985.38
2019-06-27T09:10:01.652Z,985.38
2019-06-27T09:11:01.641Z,985.37
2019-06-27T09:12:01.698Z,985.37
2019-06-27T09:13:01.680Z,985.40
2019-06-27T09:14:01.687Z,985.35
2019-06-27T09:15:01.716Z,985.34
2019-06-27T09:16:01.732Z,985.35
2019-06-27T09:17:01.766Z,985.39
2019-06-27T09:18:01.776Z,985.38
2019-06-27T09:19:01.771Z,985.37
2019-06-27T09:20:01.792Z,985.35
2019-06-27T09:21:01.799Z,985.33
2019-06-27T09:22:01.841Z,985.30
2019-06-27T09:23:01.876Z,985.33
2019-06-27T09:24:02.408Z,985.29
2019-06-27T09:25:02.088Z,985.35
2019-06-27T09:26:01.892Z,985.34
2019-06-27T09:27:01.922Z,985.36
2019-06-27T09:28:01.933Z,985.38
2019-06-27T09:29:01.927Z,985.36
2019-06-27T09:30:01.992Z,985.35
2019-06-27T09:31:01.961Z,985.36
2019-06-27T09:32:02.005Z,985.31
2019-06-27T09:33:02.014Z,985.35
2019-06-27T09:34:02.010Z,985.32
2019-06-27T09:35:02.026Z,985.31
2019-06-27T09:36:02.052Z,985.31
2019-06-27T09:37:02.105Z,985.31
2019-06-27T09:38:02.094Z,985.27
2019-06-27T09:39:02.082Z,985.24
2019-06-27T09:40:02.128Z,985.29
2019-06-27T09:41:02.183Z,985.25
2019-06-27T09:42:02.178Z,985.26
2019-06-27T09:43:02.179Z,985.28
2019-06-27T09:44:02.166Z,985.32
2019-06-27T09:45:02.181Z,985.29
2019-06-27T09:46:02.205Z,985.31
2019-06-27T09:47:02.255Z,985.28
2019-06-27T09:48:02.235Z,985.30
2019-06-27T09:49:02.254Z,985.29
2019-06-27T09:50:02.282Z,985.30
2019-06-27T09:51:02.289Z,985.27
2019-06-27T09:52:02.357Z,985.26
2019-06-27T09:53:02.381Z,985.27
2019-06-27T09:54:02.338Z,985.25
2019-06-27T09:55:02.355Z,985.23
2019-06-27T09:56:02.928Z,985.26
2019-06-27T09:57:02.415Z,985.20
2019-06-27T09:58:02.541Z,985.17
2019-06-27T09:59:02.430Z,985.16
2019-06-27T10:00:02.508Z,985.19
2019-06-27T10:01:05.755Z,985.21
2019-06-27T10:02:02.480Z,985.24
2019-06-27T10:03:02.497Z,985.22
2019-06-27T10:04:02.513Z,985.23
2019-06-27T10:05:02.531Z,985.19
2019-06-27T10:06:02.587Z,985.16
2019-06-27T10:07:02.585Z,985.17
2019-06-27T10:08:02.589Z,985.16
2019-06-27T10:09:02.602Z,985.19
2019-06-27T10:10:02.615Z,985.21
2019-06-27T10:11:02.668Z,985.16
2019-06-27T10:12:03.407Z,985.19
2019-06-27T10:13:02.669Z,985.15
2019-06-27T10:14:02.692Z,985.10
2019-06-27T10:15:02.709Z,985.11
2019-06-27T10:16:02.766Z,985.07
2019-06-27T10:17:02.754Z,985.05
2019-06-27T10:18:02.785Z,985.08
2019-06-27T10:19:03.422Z,985.07
2019-06-27T10:20:02.812Z,985.03
2019-06-27T10:21:02.851Z,985.01
2019-06-27T10:22:02.841Z,984.99
2019-06-27T10:23:02.864Z,984.95
2019-06-27T10:24:03.416Z,985.00
2019-06-27T10:25:02.899Z,985.03
2019-06-27T10:26:02.941Z,984.99
2019-06-27T10:27:02.934Z,985.08
2019-06-27T10:28:02.949Z,985.09
2019-06-27T10:29:02.976Z,985.02
2019-06-27T10:30:03.045Z,984.99
2019-06-27T10:31:03.064Z,984.93
2019-06-27T10:32:03.033Z,984.92
2019-06-27T10:33:03.145Z,984.89
2019-06-27T10:34:03.067Z,984.88
2019-06-27T10:35:03.111Z,984.87
2019-06-27T10:36:03.109Z,984.88
2019-06-27T10:37:03.122Z,984.90
2019-06-27T10:38:03.169Z,984.88
2019-06-27T10:39:03.165Z,984.91
2019-06-27T10:40:03.213Z,984.93
2019-06-27T10:41:03.198Z,984.96
2019-06-27T10:42:03.925Z,984.93
2019-06-27T10:43:03.240Z,984.88
2019-06-27T10:44:03.348Z,984.86
2019-06-27T10:45:03.305Z,984.91
2019-06-27T10:46:03.303Z,984.92
2019-06-27T10:47:03.311Z,984.88
2019-06-27T10:48:03.938Z,984.87
2019-06-27T10:49:03.348Z,984.92
2019-06-27T10:50:03.398Z,984.91
2019-06-27T10:51:03.384Z,984.94
2019-06-27T10:52:03.403Z,985.00
2019-06-27T10:53:03.423Z,984.99
2019-06-27T10:54:04.443Z,984.91
2019-06-27T10:55:03.497Z,984.89
2019-06-27T10:56:03.570Z,984.92
2019-06-27T10:57:03.502Z,984.92
2019-06-27T10:58:03.518Z,984.92
2019-06-27T10:59:03.539Z,984.92
2019-06-27T11:00:03.596Z,984.92
2019-06-27T11:01:03.579Z,984.94
2019-06-27T11:02:03.599Z,984.91
2019-06-27T11:03:14.753Z,984.87
2019-06-27T11:04:03.640Z,984.83
2019-06-27T11:05:03.685Z,984.82
2019-06-27T11:06:03.716Z,984.80
2019-06-27T11:07:03.698Z,984.84
2019-06-27T11:08:03.717Z,984.80
2019-06-27T11:09:03.750Z,984.81
2019-06-27T11:10:03.801Z,984.83
2019-06-27T11:11:03.821Z,984.84
2019-06-27T11:12:03.791Z,984.80
2019-06-27T11:13:04.437Z,984.76
2019-06-27T11:14:03.843Z,984.78
2019-06-27T11:15:03.884Z,984.77
2019-06-27T11:16:03.910Z,984.78
2019-06-27T11:17:03.888Z,984.72
2019-06-27T11:18:04.440Z,984.75
2019-06-27T11:19:03.934Z,984.74
2019-06-27T11:20:03.984Z,984.73
2019-06-27T11:21:04.011Z,984.67
2019-06-27T11:22:04.005Z,984.69
2019-06-27T11:23:04.015Z,984.64
2019-06-27T11:24:04.947Z,984.68
2019-06-27T11:25:04.083Z,984.63
2019-06-27T11:26:04.081Z,984.62
2019-06-27T11:27:04.124Z,984.60
2019-06-27T11:28:04.128Z,984.63
2019-06-27T11:29:04.164Z,984.62
2019-06-27T11:30:04.185Z,984.64
2019-06-27T11:31:04.214Z,984.66
2019-06-27T11:32:04.194Z,984.62
2019-06-27T11:33:04.236Z,984.62
2019-06-27T11:34:04.237Z,984.58
2019-06-27T11:35:04.308Z,984.62
2019-06-27T11:36:04.323Z,984.66
2019-06-27T11:37:04.301Z,984.62
2019-06-27T11:38:04.318Z,984.64
2019-06-27T11:39:04.346Z,984.63
2019-06-27T11:40:04.398Z,984.56
2019-06-27T11:41:04.375Z,984.56
2019-06-27T11:42:04.961Z,984.55
2019-06-27T11:43:04.420Z,984.55
2019-06-27T11:44:04.439Z,984.50
2019-06-27T11:45:04.487Z,984.51
2019-06-27T11:46:04.487Z,984.52
2019-06-27T11:47:04.509Z,984.52
2019-06-27T11:48:04.521Z,984.50
2019-06-27T11:49:04.547Z,984.45
2019-06-27T11:50:04.591Z,984.49
2019-06-27T11:51:04.581Z,984.44
2019-06-27T11:52:04.601Z,984.52
2019-06-27T11:53:04.629Z,984.46
2019-06-27T11:54:05.463Z,984.50
2019-06-27T11:55:04.710Z,984.52
2019-06-27T11:56:04.684Z,984.45
2019-06-27T11:57:04.715Z,984.39
2019-06-27T11:58:04.726Z,984.45
2019-06-27T11:59:04.746Z,984.41
2019-06-27T12:00:04.799Z,984.41
2019-06-27T12:01:04.784Z,984.44
2019-06-27T12:02:04.811Z,984.48
2019-06-27T12:03:04.833Z,984.47
2019-06-27T12:04:04.845Z,984.51
2019-06-27T12:05:04.892Z,984.47
2019-06-27T12:06:04.886Z,984.50
2019-06-27T12:07:04.906Z,984.45
2019-06-27T12:08:04.923Z,984.44
2019-06-27T12:09:05.006Z,984.41
2019-06-27T12:10:05.009Z,984.40
2019-06-27T12:11:05.041Z,984.46
2019-06-27T12:12:05.004Z,984.46
2019-06-27T12:13:05.055Z,984.48
2019-06-27T12:14:05.062Z,984.47
2019-06-27T12:15:05.114Z,984.46
2019-06-27T12:16:05.090Z,984.45
2019-06-27T12:17:05.106Z,984.40
2019-06-27T12:18:05.131Z,984.36
2019-06-27T12:19:05.147Z,984.37
2019-06-27T12:20:05.194Z,984.39
2019-06-27T12:21:06.285Z,984.40
2019-06-27T12:22:05.211Z,984.41
2019-06-27T12:23:05.280Z,984.35
2019-06-27T12:24:05.257Z,984.37
2019-06-27T12:25:05.300Z,984.43
2019-06-27T12:26:05.284Z,984.45
2019-06-27T12:27:05.307Z,984.47
2019-06-27T12:28:05.321Z,984.52
2019-06-27T12:29:05.347Z,984.51